sensor_id;sensor_type;location;lat;lon;timestamp;P1;durP1;ratioP1;P2;durP2;ratioP2
3643;SDS011;1838;50.742;7.158;2024-01-30T00:00:01;18.30;;;12.10;;
3643;SDS011;1838;50.742;7.158;2024-01-30T00:02:26;18.23;;;12.70;;
3643;SDS011;1838;50.742;7.158;2024-01-30T00:04:52;24.40;;;15.07;;
3643;SDS011;1838;50.742;7.158;2024-01-30T00:07:17;26.57;;;14.63;;
3643;SDS011;1838;50.742;7.158;2024-01-30T00:09:43;27.27;;;15.43;;
3643;SDS011;1838;50.742;7.158;2024-01-30T00:12:11;34.73;;;18.67;;
3643;SDS011;1838;50.742;7.158;2024-01-30T00:14:36;26.17;;;17.57;;
3643;SDS011;1838;50.742;7.158;2024-01-30T00:17:02;30.37;;;19.97;;
3643;SDS011;1838;50.742;7.158;2024-01-30T00:19:27;41.00;;;25.40;;
3643;SDS011;1838;50.742;7.158;2024-01-30T00:21:53;28.80;;;19.30;;
3643;SDS011;1838;50.742;7.158;2024-01-30T00:24:18;30.40;;;18.90;;
3643;SDS011;1838;50.742;7.158;2024-01-30T00:26:44;20.80;;;14.30;;
3643;SDS011;1838;50.742;7.158;2024-01-30T00:29:09;22.73;;;15.80;;
3643;SDS011;1838;50.742;7.158;2024-01-30T00:31:35;28.03;;;15.13;;
3643;SDS011;1838;50.742;7.158;2024-01-30T00:34:01;20.07;;;13.50;;
3643;SDS011;1838;50.742;7.158;2024-01-30T00:36:26;24.30;;;14.87;;
3643;SDS011;1838;50.742;7.158;2024-01-30T00:38:54;28.70;;;16.20;;
3643;SDS011;1838;50.742;7.158;2024-01-30T00:41:20;30.40;;;19.27;;
3643;SDS011;1838;50.742;7.158;2024-01-30T00:43:45;38.77;;;26.03;;
3643;SDS011;1838;50.742;7.158;2024-01-30T00:46:11;40.57;;;25.90;;
3643;SDS011;1838;50.742;7.158;2024-01-30T00:48:36;49.07;;;27.20;;
3643;SDS011;1838;50.742;7.158;2024-01-30T00:51:02;36.57;;;24.50;;
3643;SDS011;1838;50.742;7.158;2024-01-30T00:53:27;39.90;;;23.90;;
3643;SDS011;1838;50.742;7.158;2024-01-30T00:55:53;40.13;;;24.50;;
3643;SDS011;1838;50.742;7.158;2024-01-30T00:58:19;38.97;;;23.27;;
3643;SDS011;1838;50.742;7.158;2024-01-30T01:00:44;37.37;;;20.03;;
3643;SDS011;1838;50.742;7.158;2024-01-30T01:03:10;29.87;;;20.87;;
3643;SDS011;1838;50.742;7.158;2024-01-30T01:05:35;42.67;;;21.90;;
3643;SDS011;1838;50.742;7.158;2024-01-30T01:08:01;33.30;;;20.27;;
3643;SDS011;1838;50.742;7.158;2024-01-30T01:10:26;26.80;;;16.13;;
3643;SDS011;1838;50.742;7.158;2024-01-30T01:12:53;24.13;;;14.40;;
3643;SDS011;1838;50.742;7.158;2024-01-30T01:15:18;35.80;;;23.80;;
3643;SDS011;1838;50.742;7.158;2024-01-30T01:17:44;43.97;;;26.40;;
3643;SDS011;1838;50.742;7.158;2024-01-30T01:20:09;38.40;;;25.07;;
3643;SDS011;1838;50.742;7.158;2024-01-30T01:22:35;51.60;;;25.93;;
3643;SDS011;1838;50.742;7.158;2024-01-30T01:25:01;30.63;;;20.10;;
3643;SDS011;1838;50.742;7.158;2024-01-30T01:27:27;31.33;;;20.70;;
3643;SDS011;1838;50.742;7.158;2024-01-30T01:29:52;35.90;;;22.60;;
3643;SDS011;1838;50.742;7.158;2024-01-30T01:32:18;26.73;;;20.40;;
3643;SDS011;1838;50.742;7.158;2024-01-30T01:34:44;35.93;;;22.00;;
3643;SDS011;1838;50.742;7.158;2024-01-30T01:37:10;36.60;;;20.20;;
3643;SDS011;1838;50.742;7.158;2024-01-30T01:39:35;33.70;;;20.73;;
3643;SDS011;1838;50.742;7.158;2024-01-30T01:42:01;31.67;;;19.50;;
3643;SDS011;1838;50.742;7.158;2024-01-30T01:44:27;31.30;;;19.17;;
3643;SDS011;1838;50.742;7.158;2024-01-30T01:46:52;28.27;;;17.00;;
3643;SDS011;1838;50.742;7.158;2024-01-30T01:49:19;29.87;;;17.40;;
3643;SDS011;1838;50.742;7.158;2024-01-30T01:51:46;28.10;;;19.30;;
3643;SDS011;1838;50.742;7.158;2024-01-30T01:54:13;33.13;;;17.17;;
3643;SDS011;1838;50.742;7.158;2024-01-30T01:56:40;31.93;;;18.73;;
3643;SDS011;1838;50.742;7.158;2024-01-30T01:59:07;36.43;;;18.10;;
3643;SDS011;1838;50.742;7.158;2024-01-30T02:01:37;37.03;;;19.93;;
3643;SDS011;1838;50.742;7.158;2024-01-30T02:04:03;30.00;;;19.43;;
3643;SDS011;1838;50.742;7.158;2024-01-30T02:06:30;28.00;;;20.15;;
3643;SDS011;1838;50.742;7.158;2024-01-30T02:08:57;32.77;;;21.83;;
3643;SDS011;1838;50.742;7.158;2024-01-30T02:11:22;30.60;;;21.40;;
3643;SDS011;1838;50.742;7.158;2024-01-30T02:13:49;38.47;;;23.13;;
3643;SDS011;1838;50.742;7.158;2024-01-30T02:16:15;32.23;;;21.97;;
3643;SDS011;1838;50.742;7.158;2024-01-30T02:18:42;26.30;;;21.30;;
3643;SDS011;1838;50.742;7.158;2024-01-30T02:21:10;31.60;;;23.03;;
3643;SDS011;1838;50.742;7.158;2024-01-30T02:23:36;34.63;;;23.33;;
3643;SDS011;1838;50.742;7.158;2024-01-30T02:26:02;37.93;;;25.67;;
3643;SDS011;1838;50.742;7.158;2024-01-30T02:28:28;40.83;;;25.07;;
3643;SDS011;1838;50.742;7.158;2024-01-30T02:30:53;33.33;;;22.10;;
3643;SDS011;1838;50.742;7.158;2024-01-30T02:33:19;33.73;;;22.63;;
3643;SDS011;1838;50.742;7.158;2024-01-30T02:35:46;32.00;;;19.90;;
3643;SDS011;1838;50.742;7.158;2024-01-30T02:38:12;35.20;;;22.80;;
3643;SDS011;1838;50.742;7.158;2024-01-30T02:40:38;31.57;;;22.33;;
3643;SDS011;1838;50.742;7.158;2024-01-30T02:43:03;32.40;;;22.00;;
3643;SDS011;1838;50.742;7.158;2024-01-30T02:45:29;30.60;;;20.57;;
3643;SDS011;1838;50.742;7.158;2024-01-30T02:47:55;30.27;;;20.77;;
3643;SDS011;1838;50.742;7.158;2024-01-30T02:50:20;27.10;;;19.97;;
3643;SDS011;1838;50.742;7.158;2024-01-30T02:52:46;37.13;;;21.10;;
3643;SDS011;1838;50.742;7.158;2024-01-30T02:55:11;25.23;;;19.60;;
3643;SDS011;1838;50.742;7.158;2024-01-30T02:57:37;33.40;;;22.17;;
3643;SDS011;1838;50.742;7.158;2024-01-30T03:00:04;29.90;;;21.53;;
3643;SDS011;1838;50.742;7.158;2024-01-30T03:02:31;32.90;;;22.93;;
3643;SDS011;1838;50.742;7.158;2024-01-30T03:04:57;33.40;;;22.80;;
3643;SDS011;1838;50.742;7.158;2024-01-30T03:07:23;37.20;;;21.33;;
3643;SDS011;1838;50.742;7.158;2024-01-30T03:09:48;28.70;;;18.17;;
3643;SDS011;1838;50.742;7.158;2024-01-30T03:12:14;30.20;;;20.47;;
3643;SDS011;1838;50.742;7.158;2024-01-30T03:14:39;31.40;;;22.40;;
3643;SDS011;1838;50.742;7.158;2024-01-30T03:17:05;27.03;;;19.07;;
3643;SDS011;1838;50.742;7.158;2024-01-30T03:19:31;28.80;;;20.60;;
3643;SDS011;1838;50.742;7.158;2024-01-30T03:21:56;31.77;;;21.60;;
3643;SDS011;1838;50.742;7.158;2024-01-30T03:24:22;28.23;;;20.07;;
3643;SDS011;1838;50.742;7.158;2024-01-30T03:26:47;34.97;;;19.63;;
3643;SDS011;1838;50.742;7.158;2024-01-30T03:29:13;34.93;;;19.20;;
3643;SDS011;1838;50.742;7.158;2024-01-30T03:31:38;33.73;;;21.30;;
3643;SDS011;1838;50.742;7.158;2024-01-30T03:34:05;32.33;;;19.50;;
3643;SDS011;1838;50.742;7.158;2024-01-30T03:36:30;24.80;;;17.40;;
3643;SDS011;1838;50.742;7.158;2024-01-30T03:38:58;34.23;;;20.30;;
3643;SDS011;1838;50.742;7.158;2024-01-30T03:41:24;26.90;;;17.20;;
3643;SDS011;1838;50.742;7.158;2024-01-30T03:43:49;29.03;;;17.03;;
3643;SDS011;1838;50.742;7.158;2024-01-30T03:46:15;24.80;;;15.23;;
3643;SDS011;1838;50.742;7.158;2024-01-30T03:48:41;27.07;;;16.57;;
3643;SDS011;1838;50.742;7.158;2024-01-30T03:51:07;24.43;;;16.13;;
3643;SDS011;1838;50.742;7.158;2024-01-30T03:53:32;36.03;;;16.70;;
3643;SDS011;1838;50.742;7.158;2024-01-30T03:55:58;30.60;;;17.10;;
3643;SDS011;1838;50.742;7.158;2024-01-30T03:58:23;30.87;;;18.67;;
3643;SDS011;1838;50.742;7.158;2024-01-30T04:00:49;29.30;;;20.80;;
3643;SDS011;1838;50.742;7.158;2024-01-30T04:03:14;28.13;;;20.10;;
3643;SDS011;1838;50.742;7.158;2024-01-30T04:05:40;28.13;;;19.00;;
3643;SDS011;1838;50.742;7.158;2024-01-30T04:08:06;26.90;;;16.60;;
3643;SDS011;1838;50.742;7.158;2024-01-30T04:10:32;26.23;;;16.60;;
3643;SDS011;1838;50.742;7.158;2024-01-30T04:12:58;28.20;;;17.43;;
3643;SDS011;1838;50.742;7.158;2024-01-30T04:15:24;23.00;;;15.97;;
3643;SDS011;1838;50.742;7.158;2024-01-30T04:17:50;29.80;;;15.73;;
3643;SDS011;1838;50.742;7.158;2024-01-30T04:20:15;25.53;;;19.13;;
3643;SDS011;1838;50.742;7.158;2024-01-30T04:22:44;34.03;;;20.60;;
3643;SDS011;1838;50.742;7.158;2024-01-30T04:25:11;36.10;;;21.43;;
3643;SDS011;1838;50.742;7.158;2024-01-30T04:27:37;36.73;;;23.80;;
3643;SDS011;1838;50.742;7.158;2024-01-30T04:30:03;29.27;;;21.67;;
3643;SDS011;1838;50.742;7.158;2024-01-30T04:32:29;35.07;;;23.70;;
3643;SDS011;1838;50.742;7.158;2024-01-30T04:34:54;40.07;;;22.10;;
3643;SDS011;1838;50.742;7.158;2024-01-30T04:37:20;29.40;;;21.57;;
3643;SDS011;1838;50.742;7.158;2024-01-30T04:39:46;32.60;;;22.63;;
3643;SDS011;1838;50.742;7.158;2024-01-30T04:42:11;28.57;;;21.13;;
3643;SDS011;1838;50.742;7.158;2024-01-30T04:44:37;33.17;;;22.20;;
3643;SDS011;1838;50.742;7.158;2024-01-30T04:47:02;33.90;;;21.70;;
3643;SDS011;1838;50.742;7.158;2024-01-30T04:49:30;35.67;;;23.40;;
3643;SDS011;1838;50.742;7.158;2024-01-30T04:51:55;29.77;;;22.30;;
3643;SDS011;1838;50.742;7.158;2024-01-30T04:54:21;42.70;;;27.37;;
3643;SDS011;1838;50.742;7.158;2024-01-30T04:56:47;34.93;;;23.53;;
3643;SDS011;1838;50.742;7.158;2024-01-30T04:59:12;31.37;;;20.67;;
3643;SDS011;1838;50.742;7.158;2024-01-30T05:01:38;31.10;;;19.87;;
3643;SDS011;1838;50.742;7.158;2024-01-30T05:04:03;29.37;;;18.30;;
3643;SDS011;1838;50.742;7.158;2024-01-30T05:06:29;25.43;;;16.47;;
3643;SDS011;1838;50.742;7.158;2024-01-30T05:08:54;35.03;;;18.73;;
3643;SDS011;1838;50.742;7.158;2024-01-30T05:11:20;34.27;;;20.50;;
3643;SDS011;1838;50.742;7.158;2024-01-30T05:13:46;34.10;;;22.53;;
3643;SDS011;1838;50.742;7.158;2024-01-30T05:16:11;41.70;;;24.97;;
3643;SDS011;1838;50.742;7.158;2024-01-30T05:18:37;34.80;;;24.35;;
3643;SDS011;1838;50.742;7.158;2024-01-30T05:21:03;33.37;;;21.90;;
3643;SDS011;1838;50.742;7.158;2024-01-30T05:23:29;29.03;;;19.10;;
3643;SDS011;1838;50.742;7.158;2024-01-30T05:25:54;30.70;;;19.83;;
3643;SDS011;1838;50.742;7.158;2024-01-30T05:28:20;27.10;;;17.80;;
3643;SDS011;1838;50.742;7.158;2024-01-30T05:30:45;34.20;;;18.53;;
3643;SDS011;1838;50.742;7.158;2024-01-30T05:33:11;23.63;;;17.10;;
3643;SDS011;1838;50.742;7.158;2024-01-30T05:35:37;30.53;;;17.87;;
3643;SDS011;1838;50.742;7.158;2024-01-30T05:38:03;30.03;;;19.27;;
3643;SDS011;1838;50.742;7.158;2024-01-30T05:40:29;24.90;;;16.30;;
3643;SDS011;1838;50.742;7.158;2024-01-30T05:42:55;25.47;;;18.10;;
3643;SDS011;1838;50.742;7.158;2024-01-30T05:45:20;31.33;;;19.20;;
3643;SDS011;1838;50.742;7.158;2024-01-30T05:47:48;28.37;;;20.07;;
3643;SDS011;1838;50.742;7.158;2024-01-30T05:50:13;36.00;;;21.70;;
3643;SDS011;1838;50.742;7.158;2024-01-30T05:52:39;31.63;;;20.90;;
3643;SDS011;1838;50.742;7.158;2024-01-30T05:55:05;31.97;;;20.47;;
3643;SDS011;1838;50.742;7.158;2024-01-30T05:57:31;27.30;;;18.20;;
3643;SDS011;1838;50.742;7.158;2024-01-30T06:00:16;28.01;;;18.39;;
3643;SDS011;1838;50.742;7.158;2024-01-30T06:02:41;29.83;;;17.40;;
3643;SDS011;1838;50.742;7.158;2024-01-30T06:05:07;25.50;;;17.03;;
3643;SDS011;1838;50.742;7.158;2024-01-30T06:07:33;22.45;;;15.30;;
3643;SDS011;1838;50.742;7.158;2024-01-30T06:09:58;25.87;;;13.30;;
3643;SDS011;1838;50.742;7.158;2024-01-30T06:12:25;24.43;;;15.07;;
3643;SDS011;1838;50.742;7.158;2024-01-30T06:14:51;23.60;;;16.03;;
3643;SDS011;1838;50.742;7.158;2024-01-30T06:17:19;38.53;;;20.67;;
3643;SDS011;1838;50.742;7.158;2024-01-30T06:19:44;33.17;;;22.10;;
3643;SDS011;1838;50.742;7.158;2024-01-30T06:22:10;34.43;;;23.83;;
3643;SDS011;1838;50.742;7.158;2024-01-30T06:24:36;35.13;;;21.57;;
3643;SDS011;1838;50.742;7.158;2024-01-30T06:27:01;38.87;;;22.47;;
3643;SDS011;1838;50.742;7.158;2024-01-30T06:29:27;32.87;;;21.27;;
3643;SDS011;1838;50.742;7.158;2024-01-30T06:31:53;29.30;;;20.47;;
3643;SDS011;1838;50.742;7.158;2024-01-30T06:34:18;30.93;;;20.10;;
3643;SDS011;1838;50.742;7.158;2024-01-30T06:36:44;30.50;;;19.40;;
3643;SDS011;1838;50.742;7.158;2024-01-30T06:39:09;31.50;;;20.30;;
3643;SDS011;1838;50.742;7.158;2024-01-30T06:41:35;29.80;;;19.57;;
3643;SDS011;1838;50.742;7.158;2024-01-30T06:44:02;27.30;;;19.10;;
3643;SDS011;1838;50.742;7.158;2024-01-30T06:46:29;30.77;;;19.73;;
3643;SDS011;1838;50.742;7.158;2024-01-30T06:48:54;33.20;;;19.40;;
3643;SDS011;1838;50.742;7.158;2024-01-30T06:51:20;29.97;;;20.93;;
3643;SDS011;1838;50.742;7.158;2024-01-30T06:53:45;34.70;;;21.13;;
3643;SDS011;1838;50.742;7.158;2024-01-30T06:56:11;38.17;;;22.93;;
3643;SDS011;1838;50.742;7.158;2024-01-30T06:58:36;35.37;;;22.40;;
3643;SDS011;1838;50.742;7.158;2024-01-30T07:01:02;31.30;;;20.40;;
3643;SDS011;1838;50.742;7.158;2024-01-30T07:03:27;28.83;;;19.70;;
3643;SDS011;1838;50.742;7.158;2024-01-30T07:05:53;28.97;;;19.10;;
3643;SDS011;1838;50.742;7.158;2024-01-30T07:08:18;37.23;;;21.87;;
3643;SDS011;1838;50.742;7.158;2024-01-30T07:10:44;34.87;;;21.73;;
3643;SDS011;1838;50.742;7.158;2024-01-30T07:13:10;31.00;;;21.63;;
3643;SDS011;1838;50.742;7.158;2024-01-30T07:15:36;37.20;;;22.60;;
3643;SDS011;1838;50.742;7.158;2024-01-30T07:18:02;28.10;;;19.70;;
3643;SDS011;1838;50.742;7.158;2024-01-30T07:20:29;32.60;;;19.17;;
3643;SDS011;1838;50.742;7.158;2024-01-30T07:22:56;30.97;;;20.23;;
3643;SDS011;1838;50.742;7.158;2024-01-30T07:25:26;27.80;;;19.53;;
3643;SDS011;1838;50.742;7.158;2024-01-30T07:27:55;27.40;;;17.13;;
3643;SDS011;1838;50.742;7.158;2024-01-30T07:30:21;31.90;;;17.07;;
3643;SDS011;1838;50.742;7.158;2024-01-30T07:32:46;28.23;;;19.30;;
3643;SDS011;1838;50.742;7.158;2024-01-30T07:35:12;29.90;;;19.80;;
3643;SDS011;1838;50.742;7.158;2024-01-30T07:37:38;29.77;;;19.97;;
3643;SDS011;1838;50.742;7.158;2024-01-30T07:40:04;36.93;;;23.20;;
3643;SDS011;1838;50.742;7.158;2024-01-30T07:42:31;31.97;;;20.70;;
3643;SDS011;1838;50.742;7.158;2024-01-30T07:44:56;29.30;;;19.50;;
3643;SDS011;1838;50.742;7.158;2024-01-30T07:47:22;30.63;;;21.40;;
3643;SDS011;1838;50.742;7.158;2024-01-30T07:49:47;30.03;;;20.30;;
3643;SDS011;1838;50.742;7.158;2024-01-30T07:52:13;27.33;;;18.80;;
3643;SDS011;1838;50.742;7.158;2024-01-30T07:54:38;35.97;;;22.43;;
3643;SDS011;1838;50.742;7.158;2024-01-30T07:57:04;29.53;;;20.60;;
3643;SDS011;1838;50.742;7.158;2024-01-30T07:59:30;37.40;;;19.97;;
3643;SDS011;1838;50.742;7.158;2024-01-30T08:01:55;27.40;;;18.77;;
3643;SDS011;1838;50.742;7.158;2024-01-30T08:04:21;36.13;;;19.60;;
3643;SDS011;1838;50.742;7.158;2024-01-30T08:06:46;30.07;;;20.33;;
3643;SDS011;1838;50.742;7.158;2024-01-30T08:09:12;24.97;;;17.90;;
3643;SDS011;1838;50.742;7.158;2024-01-30T08:11:37;28.10;;;17.33;;
3643;SDS011;1838;50.742;7.158;2024-01-30T08:14:03;25.33;;;17.13;;
3643;SDS011;1838;50.742;7.158;2024-01-30T08:16:28;32.63;;;17.73;;
3643;SDS011;1838;50.742;7.158;2024-01-30T08:18:54;28.93;;;15.83;;
3643;SDS011;1838;50.742;7.158;2024-01-30T08:21:22;25.37;;;15.03;;
3643;SDS011;1838;50.742;7.158;2024-01-30T08:23:48;23.57;;;14.60;;
3643;SDS011;1838;50.742;7.158;2024-01-30T08:26:13;28.63;;;16.60;;
3643;SDS011;1838;50.742;7.158;2024-01-30T08:28:39;29.07;;;15.37;;
3643;SDS011;1838;50.742;7.158;2024-01-30T08:31:04;25.93;;;16.53;;
3643;SDS011;1838;50.742;7.158;2024-01-30T08:33:29;27.00;;;17.10;;
3643;SDS011;1838;50.742;7.158;2024-01-30T08:35:55;28.07;;;17.93;;
3643;SDS011;1838;50.742;7.158;2024-01-30T08:38:20;31.40;;;18.73;;
3643;SDS011;1838;50.742;7.158;2024-01-30T08:40:46;26.67;;;17.00;;
3643;SDS011;1838;50.742;7.158;2024-01-30T08:43:11;29.37;;;17.30;;
3643;SDS011;1838;50.742;7.158;2024-01-30T08:45:37;23.43;;;15.60;;
3643;SDS011;1838;50.742;7.158;2024-01-30T08:48:03;26.90;;;15.03;;
3643;SDS011;1838;50.742;7.158;2024-01-30T08:50:29;27.27;;;14.73;;
3643;SDS011;1838;50.742;7.158;2024-01-30T08:52:54;28.70;;;15.27;;
3643;SDS011;1838;50.742;7.158;2024-01-30T08:55:21;26.38;;;16.73;;
3643;SDS011;1838;50.742;7.158;2024-01-30T08:57:47;27.93;;;17.30;;
3643;SDS011;1838;50.742;7.158;2024-01-30T09:00:12;26.53;;;15.60;;
3643;SDS011;1838;50.742;7.158;2024-01-30T09:02:38;30.83;;;16.87;;
3643;SDS011;1838;50.742;7.158;2024-01-30T09:05:04;31.10;;;15.03;;
3643;SDS011;1838;50.742;7.158;2024-01-30T09:07:29;26.57;;;14.93;;
3643;SDS011;1838;50.742;7.158;2024-01-30T09:09:55;22.30;;;13.60;;
3643;SDS011;1838;50.742;7.158;2024-01-30T09:12:20;19.37;;;13.10;;
3643;SDS011;1838;50.742;7.158;2024-01-30T09:14:46;28.63;;;13.00;;
3643;SDS011;1838;50.742;7.158;2024-01-30T09:17:11;21.43;;;12.63;;
3643;SDS011;1838;50.742;7.158;2024-01-30T09:19:38;18.80;;;12.47;;
3643;SDS011;1838;50.742;7.158;2024-01-30T09:22:03;18.87;;;11.60;;
3643;SDS011;1838;50.742;7.158;2024-01-30T09:24:29;18.30;;;12.37;;
3643;SDS011;1838;50.742;7.158;2024-01-30T09:26:55;21.90;;;13.37;;
3643;SDS011;1838;50.742;7.158;2024-01-30T09:29:20;18.47;;;11.73;;
3643;SDS011;1838;50.742;7.158;2024-01-30T09:31:46;22.80;;;13.47;;
3643;SDS011;1838;50.742;7.158;2024-01-30T09:34:12;24.57;;;14.20;;
3643;SDS011;1838;50.742;7.158;2024-01-30T09:36:38;20.70;;;13.13;;
3643;SDS011;1838;50.742;7.158;2024-01-30T09:39:04;25.47;;;13.83;;
3643;SDS011;1838;50.742;7.158;2024-01-30T09:41:32;19.70;;;13.23;;
3643;SDS011;1838;50.742;7.158;2024-01-30T09:44:02;27.83;;;14.77;;
3643;SDS011;1838;50.742;7.158;2024-01-30T09:46:30;19.27;;;13.40;;
3643;SDS011;1838;50.742;7.158;2024-01-30T09:48:57;26.03;;;12.93;;
3643;SDS011;1838;50.742;7.158;2024-01-30T09:51:23;25.30;;;12.13;;
3643;SDS011;1838;50.742;7.158;2024-01-30T09:53:50;19.60;;;12.20;;
3643;SDS011;1838;50.742;7.158;2024-01-30T09:56:15;20.07;;;11.17;;
3643;SDS011;1838;50.742;7.158;2024-01-30T09:58:41;15.97;;;10.70;;
3643;SDS011;1838;50.742;7.158;2024-01-30T10:01:07;22.83;;;10.13;;
3643;SDS011;1838;50.742;7.158;2024-01-30T10:03:33;14.93;;;10.23;;
3643;SDS011;1838;50.742;7.158;2024-01-30T10:05:59;14.57;;;10.43;;
3643;SDS011;1838;50.742;7.158;2024-01-30T10:08:26;16.70;;;10.07;;
3643;SDS011;1838;50.742;7.158;2024-01-30T10:10:52;18.40;;;10.17;;
3643;SDS011;1838;50.742;7.158;2024-01-30T10:13:18;18.40;;;9.60;;
3643;SDS011;1838;50.742;7.158;2024-01-30T10:15:44;14.20;;;9.90;;
3643;SDS011;1838;50.742;7.158;2024-01-30T10:18:12;23.23;;;10.47;;
3643;SDS011;1838;50.742;7.158;2024-01-30T10:20:38;14.33;;;9.83;;
3643;SDS011;1838;50.742;7.158;2024-01-30T10:23:03;14.27;;;10.47;;
3643;SDS011;1838;50.742;7.158;2024-01-30T10:25:30;16.30;;;10.70;;
3643;SDS011;1838;50.742;7.158;2024-01-30T10:27:56;13.17;;;11.40;;
3643;SDS011;1838;50.742;7.158;2024-01-30T10:30:23;17.30;;;10.80;;
3643;SDS011;1838;50.742;7.158;2024-01-30T10:32:49;14.17;;;10.90;;
3643;SDS011;1838;50.742;7.158;2024-01-30T10:35:15;19.53;;;12.30;;
3643;SDS011;1838;50.742;7.158;2024-01-30T10:37:43;18.87;;;12.93;;
3643;SDS011;1838;50.742;7.158;2024-01-30T10:40:09;22.00;;;12.33;;
3643;SDS011;1838;50.742;7.158;2024-01-30T10:42:38;20.80;;;13.07;;
3643;SDS011;1838;50.742;7.158;2024-01-30T10:47:36;17.50;;;12.30;;
3643;SDS011;1838;50.742;7.158;2024-01-30T10:50:02;15.73;;;12.37;;
3643;SDS011;1838;50.742;7.158;2024-01-30T10:52:28;21.13;;;13.17;;
3643;SDS011;1838;50.742;7.158;2024-01-30T10:54:55;21.13;;;12.60;;
3643;SDS011;1838;50.742;7.158;2024-01-30T10:57:24;21.00;;;11.13;;
3643;SDS011;1838;50.742;7.158;2024-01-30T10:59:52;16.90;;;11.45;;
3643;SDS011;1838;50.742;7.158;2024-01-30T11:02:21;18.13;;;11.70;;
3643;SDS011;1838;50.742;7.158;2024-01-30T11:04:49;17.63;;;10.53;;
3643;SDS011;1838;50.742;7.158;2024-01-30T11:07:18;16.10;;;11.07;;
3643;SDS011;1838;50.742;7.158;2024-01-30T11:12:26;26.57;;;11.70;;
3643;SDS011;1838;50.742;7.158;2024-01-30T11:17:49;16.77;;;12.07;;
3643;SDS011;1838;50.742;7.158;2024-01-30T11:22:51;22.33;;;13.60;;
3643;SDS011;1838;50.742;7.158;2024-01-30T11:25:19;17.60;;;12.87;;
3643;SDS011;1838;50.742;7.158;2024-01-30T11:27:46;22.70;;;16.03;;
3643;SDS011;1838;50.742;7.158;2024-01-30T11:30:27;22.53;;;13.50;;
3643;SDS011;1838;50.742;7.158;2024-01-30T11:33:06;19.17;;;13.90;;
3643;SDS011;1838;50.742;7.158;2024-01-30T11:35:34;18.15;;;13.65;;
3643;SDS011;1838;50.742;7.158;2024-01-30T11:38:02;22.50;;;13.30;;
3643;SDS011;1838;50.742;7.158;2024-01-30T11:40:28;19.47;;;13.00;;
3643;SDS011;1838;50.742;7.158;2024-01-30T11:42:56;20.07;;;12.90;;
3643;SDS011;1838;50.742;7.158;2024-01-30T11:45:22;16.63;;;12.30;;
3643;SDS011;1838;50.742;7.158;2024-01-30T11:47:48;22.37;;;13.40;;
3643;SDS011;1838;50.742;7.158;2024-01-30T11:50:14;18.53;;;12.57;;
3643;SDS011;1838;50.742;7.158;2024-01-30T11:52:40;18.07;;;12.33;;
3643;SDS011;1838;50.742;7.158;2024-01-30T11:55:06;15.20;;;11.93;;
3643;SDS011;1838;50.742;7.158;2024-01-30T11:57:33;23.17;;;12.20;;
3643;SDS011;1838;50.742;7.158;2024-01-30T12:00:00;21.63;;;13.00;;
3643;SDS011;1838;50.742;7.158;2024-01-30T12:02:26;15.48;;;12.02;;
3643;SDS011;1838;50.742;7.158;2024-01-30T12:04:52;21.43;;;12.00;;
3643;SDS011;1838;50.742;7.158;2024-01-30T12:07:17;16.23;;;10.30;;
3643;SDS011;1838;50.742;7.158;2024-01-30T12:09:51;23.17;;;10.90;;
3643;SDS011;1838;50.742;7.158;2024-01-30T12:12:18;20.10;;;10.53;;
3643;SDS011;1838;50.742;7.158;2024-01-30T12:14:44;18.80;;;10.43;;
3643;SDS011;1838;50.742;7.158;2024-01-30T12:17:09;12.90;;;9.50;;
3643;SDS011;1838;50.742;7.158;2024-01-30T12:19:36;16.93;;;9.97;;
3643;SDS011;1838;50.742;7.158;2024-01-30T12:22:01;20.83;;;10.97;;
3643;SDS011;1838;50.742;7.158;2024-01-30T12:24:27;16.13;;;10.20;;
3643;SDS011;1838;50.742;7.158;2024-01-30T12:26:58;19.60;;;12.13;;
3643;SDS011;1838;50.742;7.158;2024-01-30T12:29:24;16.70;;;11.73;;
3643;SDS011;1838;50.742;7.158;2024-01-30T12:31:52;22.23;;;11.87;;
3643;SDS011;1838;50.742;7.158;2024-01-30T12:34:19;18.80;;;11.90;;
3643;SDS011;1838;50.742;7.158;2024-01-30T12:36:46;15.83;;;11.00;;
3643;SDS011;1838;50.742;7.158;2024-01-30T12:39:14;17.67;;;11.53;;
3643;SDS011;1838;50.742;7.158;2024-01-30T12:41:40;11.60;;;9.70;;
3643;SDS011;1838;50.742;7.158;2024-01-30T12:44:05;15.50;;;11.70;;
3643;SDS011;1838;50.742;7.158;2024-01-30T12:46:31;14.50;;;10.77;;
3643;SDS011;1838;50.742;7.158;2024-01-30T12:48:59;18.13;;;11.90;;
3643;SDS011;1838;50.742;7.158;2024-01-30T12:51:25;15.27;;;10.93;;
3643;SDS011;1838;50.742;7.158;2024-01-30T12:53:50;16.13;;;10.60;;
3643;SDS011;1838;50.742;7.158;2024-01-30T12:56:16;17.20;;;10.07;;
3643;SDS011;1838;50.742;7.158;2024-01-30T12:58:41;18.67;;;10.20;;
3643;SDS011;1838;50.742;7.158;2024-01-30T13:01:08;20.93;;;10.83;;
3643;SDS011;1838;50.742;7.158;2024-01-30T13:03:34;20.30;;;10.90;;
3643;SDS011;1838;50.742;7.158;2024-01-30T13:06:00;24.87;;;11.47;;
3643;SDS011;1838;50.742;7.158;2024-01-30T13:08:25;17.23;;;9.97;;
3643;SDS011;1838;50.742;7.158;2024-01-30T13:10:51;14.87;;;10.67;;
3643;SDS011;1838;50.742;7.158;2024-01-30T13:13:16;15.47;;;11.50;;
3643;SDS011;1838;50.742;7.158;2024-01-30T13:15:42;16.37;;;10.93;;
3643;SDS011;1838;50.742;7.158;2024-01-30T13:18:07;16.60;;;11.07;;
3643;SDS011;1838;50.742;7.158;2024-01-30T13:20:33;16.63;;;12.83;;
3643;SDS011;1838;50.742;7.158;2024-01-30T13:22:58;17.20;;;12.57;;
3643;SDS011;1838;50.742;7.158;2024-01-30T13:25:24;21.20;;;13.30;;
3643;SDS011;1838;50.742;7.158;2024-01-30T13:27:49;15.53;;;11.97;;
3643;SDS011;1838;50.742;7.158;2024-01-30T13:30:15;17.77;;;12.17;;
3643;SDS011;1838;50.742;7.158;2024-01-30T13:32:40;15.50;;;11.80;;
3643;SDS011;1838;50.742;7.158;2024-01-30T13:35:09;18.93;;;12.37;;
3643;SDS011;1838;50.742;7.158;2024-01-30T13:37:34;16.17;;;13.20;;
3643;SDS011;1838;50.742;7.158;2024-01-30T13:40:00;18.30;;;15.00;;
3643;SDS011;1838;50.742;7.158;2024-01-30T13:42:26;20.33;;;14.20;;
3643;SDS011;1838;50.742;7.158;2024-01-30T13:44:52;19.90;;;13.97;;
3643;SDS011;1838;50.742;7.158;2024-01-30T13:47:18;19.47;;;12.57;;
3643;SDS011;1838;50.742;7.158;2024-01-30T13:49:46;21.70;;;13.13;;
3643;SDS011;1838;50.742;7.158;2024-01-30T13:52:12;19.80;;;11.67;;
3643;SDS011;1838;50.742;7.158;2024-01-30T13:54:38;18.10;;;13.10;;
3643;SDS011;1838;50.742;7.158;2024-01-30T13:57:03;17.87;;;11.37;;
3643;SDS011;1838;50.742;7.158;2024-01-30T13:59:30;17.27;;;12.53;;
3643;SDS011;1838;50.742;7.158;2024-01-30T14:01:55;16.97;;;11.33;;
3643;SDS011;1838;50.742;7.158;2024-01-30T14:04:21;18.07;;;12.67;;
3643;SDS011;1838;50.742;7.158;2024-01-30T14:06:46;18.17;;;12.60;;
3643;SDS011;1838;50.742;7.158;2024-01-30T14:09:12;15.17;;;10.63;;
3643;SDS011;1838;50.742;7.158;2024-01-30T14:11:40;16.57;;;11.60;;
3643;SDS011;1838;50.742;7.158;2024-01-30T14:14:06;12.97;;;11.40;;
3643;SDS011;1838;50.742;7.158;2024-01-30T14:16:32;19.23;;;11.63;;
3643;SDS011;1838;50.742;7.158;2024-01-30T14:18:57;19.53;;;11.90;;
3643;SDS011;1838;50.742;7.158;2024-01-30T14:21:23;16.10;;;11.47;;
3643;SDS011;1838;50.742;7.158;2024-01-30T14:23:49;21.63;;;11.97;;
3643;SDS011;1838;50.742;7.158;2024-01-30T14:26:14;24.23;;;13.27;;
3643;SDS011;1838;50.742;7.158;2024-01-30T14:28:40;18.70;;;13.47;;
3643;SDS011;1838;50.742;7.158;2024-01-30T14:31:05;22.37;;;11.27;;
3643;SDS011;1838;50.742;7.158;2024-01-30T14:33:31;14.00;;;9.40;;
3643;SDS011;1838;50.742;7.158;2024-01-30T14:35:57;16.73;;;10.27;;
3643;SDS011;1838;50.742;7.158;2024-01-30T14:38:25;15.07;;;11.50;;
3643;SDS011;1838;50.742;7.158;2024-01-30T14:40:50;16.63;;;12.03;;
3643;SDS011;1838;50.742;7.158;2024-01-30T14:43:16;15.00;;;12.00;;
3643;SDS011;1838;50.742;7.158;2024-01-30T14:45:41;16.40;;;12.40;;
3643;SDS011;1838;50.742;7.158;2024-01-30T14:48:07;19.20;;;13.63;;
3643;SDS011;1838;50.742;7.158;2024-01-30T14:50:33;20.27;;;13.07;;